Time;durP1;ratioP1;P1;durP2;ratioP2;P2;SDS_P1;SDS_P2;PMS_P1;PMS_P2;Temp;Humidity;BMP_temperature;BMP_pressure;BME280_temperature;BME280_humidity;BME280_pressure;Samples;Min_cycle;Max_cycle;Signal;HPM_P1;HPM_P2
2022/11/03 00:02:16;;;;;;;14.50;13.40;;;13.00;35.60;;;;;;5047802;28;20897;-54
2022/11/03 00:04:42;;;;;;;14.13;13.13;;;12.80;36.20;;;;;;5065387;28;20873;-57
2022/11/03 00:07:08;;;;;;;14.90;13.93;;;12.60;36.50;;;;;;5046938;28;20504;-57
2022/11/03 00:09:34;;;;;;;14.83;13.63;;;12.60;37.50;;;;;;5047335;28;20171;-57
2022/11/03 00:12:00;;;;;;;14.80;13.50;;;12.70;37.00;;;;;;5048046;28;20413;-57
2022/11/03 00:14:26;;;;;;;15.27;13.93;;;12.90;36.40;;;;;;5045177;28;20443;-56
2022/11/03 00:16:52;;;;;;;15.07;13.97;;;13.00;35.60;;;;;;5045505;28;20413;-57
2022/11/03 00:19:18;;;;;;;13.40;12.40;;;13.20;35.10;;;;;;5046305;28;20872;-57
2022/11/03 00:21:44;;;;;;;15.10;13.90;;;13.20;34.80;;;;;;5048553;28;20903;-57
2022/11/03 00:24:11;;;;;;;14.37;13.33;;;13.10;34.80;;;;;;5044508;28;20207;-58
2022/11/03 00:26:37;;;;;;;13.53;12.40;;;12.90;35.40;;;;;;5047454;28;20450;-55
2022/11/03 00:29:08;;;;;;;14.27;13.37;;;12.90;35.20;;;;;;5045913;28;20547;-57
2022/11/03 00:31:36;;;;;;;13.27;12.47;;;13.00;35.50;;;;;;5047234;28;20467;-56
2022/11/03 00:34:03;;;;;;;15.30;14.03;;;12.90;35.40;;;;;;5044713;28;20921;-57
2022/11/03 00:36:31;;;;;;;12.80;11.90;;;12.70;36.20;;;;;;5045293;28;20429;-55
2022/11/03 00:38:57;;;;;;;13.97;12.90;;;12.60;36.40;;;;;;5046358;28;20430;-57
2022/11/03 00:41:25;;;;;;;12.77;12.03;;;12.60;36.10;;;;;;5044691;28;20460;-56
2022/11/03 00:43:51;;;;;;;13.33;12.40;;;12.70;36.70;;;;;;5063001;28;20198;-47
2022/11/03 00:46:19;;;;;;;14.00;13.00;;;12.80;35.90;;;;;;5061509;28;20421;-47
2022/11/03 00:48:45;;;;;;;14.00;12.90;;;12.80;36.20;;;;;;5045208;28;20417;-58
2022/11/03 00:51:23;;;;;;;13.43;12.67;;;12.80;35.70;;;;;;5034620;28;20461;-57
2022/11/03 00:54:00;;;;;;;14.20;13.00;;;12.70;36.10;;;;;;5042635;28;20470;-56
2022/11/03 00:56:30;;;;;;;13.83;12.80;;;12.60;36.60;;;;;;5041973;28;20424;-57
2022/11/03 00:58:57;;;;;;;13.83;13.00;;;12.50;37.40;;;;;;5043827;28;20417;-57
2022/11/03 01:01:30;;;;;;;15.17;14.13;;;12.30;37.60;;;;;;5043296;28;20470;-56
2022/11/03 01:06:50;;;;;;;14.53;13.13;;;12.30;37.90;;;;;;5063790;28;20458;-57
2022/11/03 01:09:23;;;;;;;14.40;13.50;;;12.20;38.50;;;;;;5043812;28;20413;-55
2022/11/03 01:11:56;;;;;;;13.40;12.70;;;12.10;38.50;;;;;;5045316;28;20522;-56
2022/11/03 01:14:23;;;;;;;13.60;12.80;;;12.30;38.60;;;;;;5045776;28;20472;-58
2022/11/03 01:16:49;;;;;;;15.67;14.37;;;12.30;37.40;;;;;;5045684;28;20905;-58
2022/11/03 01:19:15;;;;;;;14.83;13.73;;;12.20;38.00;;;;;;5045874;28;20436;-56
2022/11/03 01:21:41;;;;;;;15.57;14.20;;;12.10;38.10;;;;;;5043712;28;20187;-57
2022/11/03 01:24:07;;;;;;;14.70;13.80;;;12.10;38.20;;;;;;5044528;28;20671;-58
2022/11/03 01:26:33;;;;;;;15.73;14.60;;;12.10;37.90;;;;;;5044364;28;20484;-56
2022/11/03 01:28:59;;;;;;;15.37;14.03;;;12.10;38.20;;;;;;5044483;28;20189;-56
2022/11/03 01:31:25;;;;;;;15.57;14.47;;;12.10;38.10;;;;;;5044073;28;20175;-56
2022/11/03 01:33:53;;;;;;;14.60;13.70;;;12.00;38.80;;;;;;5043004;28;21030;-57
2022/11/03 01:36:19;;;;;;;15.00;13.90;;;12.10;38.30;;;;;;5042891;28;20910;-56
2022/11/03 01:38:45;;;;;;;15.70;14.70;;;12.10;38.20;;;;;;5045981;28;20775;-55
2022/11/03 01:41:17;;;;;;;16.83;15.27;;;12.10;38.20;;;;;;5043163;28;20437;-57
2022/11/03 01:43:43;;;;;;;15.10;14.20;;;12.10;38.40;;;;;;5041026;28;20555;-55
2022/11/03 01:46:26;;;;;;;15.07;13.90;;;12.10;37.70;;;;;;5041486;28;20433;-56
2022/11/03 01:49:10;;;;;;;15.50;14.30;;;11.90;39.10;;;;;;5042130;28;20880;-55
2022/11/03 01:51:36;;;;;;;14.23;13.33;;;11.90;38.50;;;;;;5042907;28;20819;-58
2022/11/03 01:54:08;;;;;;;14.97;13.90;;;11.90;39.20;;;;;;5039801;28;20826;-56
2022/11/03 01:56:36;;;;;;;14.13;13.23;;;12.10;38.90;;;;;;5041272;28;20433;-54
2022/11/03 01:59:02;;;;;;;13.80;12.80;;;12.30;38.20;;;;;;5041891;28;20819;-56
2022/11/03 02:01:29;;;;;;;14.27;13.27;;;12.40;37.50;;;;;;5041840;28;20932;-58
2022/11/03 02:04:01;;;;;;;13.43;12.50;;;12.60;36.90;;;;;;5040988;28;20425;-57
2022/11/03 02:06:29;;;;;;;13.57;12.77;;;12.70;36.40;;;;;;5041862;28;20410;-57
2022/11/03 02:08:59;;;;;;;13.97;12.73;;;12.80;35.90;;;;;;5041797;28;20774;-58
2022/11/03 02:14:11;;;;;;;13.17;12.47;;;12.70;36.00;;;;;;5060238;28;20420;-57
2022/11/03 02:16:39;;;;;;;12.77;12.10;;;12.80;35.70;;;;;;5040916;28;20425;-55
2022/11/03 02:19:15;;;;;;;13.10;12.30;;;12.90;35.40;;;;;;5042265;28;20422;-56
2022/11/03 02:21:47;;;;;;;13.93;12.90;;;12.90;35.40;;;;;;5041029;28;20477;-55
2022/11/03 02:24:31;;;;;;;12.70;11.70;;;12.90;35.00;;;;;;5058775;28;20898;-57
2022/11/03 02:26:56;;;;;;;13.63;12.83;;;13.00;34.80;;;;;;5041368;28;20512;-56
2022/11/03 02:29:22;;;;;;;12.87;11.97;;;13.00;34.80;;;;;;5041247;28;20522;-56
2022/11/03 02:31:57;;;;;;;13.60;12.60;;;13.10;34.50;;;;;;5041032;28;20183;-57
2022/11/03 02:34:45;;;;;;;13.97;13.07;;;13.00;34.60;;;;;;5040848;28;20185;-55
2022/11/03 02:37:16;;;;;;;13.80;12.70;;;13.00;34.50;;;;;;5041161;28;20425;-56
2022/11/03 02:39:51;;;;;;;12.17;11.30;;;13.00;34.30;;;;;;5041040;28;20480;-57
2022/11/03 02:42:18;;;;;;;12.40;11.70;;;13.00;34.50;;;;;;5058031;28;20901;-56
2022/11/03 02:44:46;;;;;;;11.80;11.10;;;12.90;34.60;;;;;;5058424;28;20461;-57
2022/11/03 02:47:13;;;;;;;12.30;11.60;;;12.70;35.80;;;;;;5041672;28;20413;-58
2022/11/03 02:49:49;;;;;;;11.93;11.03;;;12.80;35.50;;;;;;5041306;28;20521;-55
2022/11/03 02:52:33;;;;;;;12.50;11.80;;;12.80;35.30;;;;;;5041860;28;20414;-56
2022/11/03 02:55:05;;;;;;;12.10;11.40;;;12.90;35.10;;;;;;5059494;28;20493;-55
2022/11/03 02:57:33;;;;;;;14.17;13.33;;;12.90;34.80;;;;;;5040329;28;20418;-57
2022/11/03 03:00:05;;;;;;;15.10;14.00;;;12.70;34.70;;;;;;5040106;28;20431;-56
2022/11/03 03:02:46;;;;;;;13.90;12.70;;;12.40;34.80;;;;;;5040626;28;20838;-57
2022/11/03 03:05:16;;;;;;;13.70;12.97;;;12.40;35.90;;;;;;5040553;28;20522;-57
2022/11/03 03:07:47;;;;;;;13.60;12.57;;;12.50;35.70;;;;;;5038645;28;20495;-57
2022/11/03 03:10:26;;;;;;;14.20;13.03;;;12.50;35.10;;;;;;5039478;28;20420;-56
2022/11/03 03:12:55;;;;;;;14.20;13.30;;;12.40;35.90;;;;;;5039824;28;20998;-57
2022/11/03 03:15:35;;;;;;;13.67;12.97;;;12.40;35.80;;;;;;5039785;28;20437;-57
2022/11/03 03:18:44;;;;;;;14.83;13.83;;;12.50;35.20;;;;;;5039939;28;20793;-57
2022/11/03 03:21:22;;;;;;;15.47;14.47;;;12.60;34.30;;;;;;5038105;28;20490;-58
2022/11/03 03:24:14;;;;;;;14.77;13.97;;;12.50;34.90;;;;;;5038806;28;20425;-58
2022/11/03 03:26:51;;;;;;;14.93;13.90;;;12.30;35.10;;;;;;5040229;28;20496;-56
2022/11/03 03:29:36;;;;;;;14.70;13.80;;;12.00;36.20;;;;;;5040965;28;20897;-57
2022/11/03 03:32:07;;;;;;;15.50;14.50;;;12.00;37.40;;;;;;5041719;28;20453;-57
2022/11/03 03:34:36;;;;;;;14.70;13.83;;;12.00;36.90;;;;;;5040209;28;20459;-56
2022/11/03 03:37:05;;;;;;;15.70;14.60;;;12.10;36.70;;;;;;5040746;28;20466;-58
2022/11/03 03:39:35;;;;;;;15.40;14.47;;;12.20;36.20;;;;;;5039803;28;20421;-58
2022/11/03 03:42:02;;;;;;;14.37;13.37;;;12.30;35.50;;;;;;5040163;28;20422;-57
2022/11/03 03:44:28;;;;;;;15.07;14.17;;;12.40;35.40;;;;;;5040279;28;20871;-56
2022/11/03 03:47:05;;;;;;;13.80;13.10;;;12.50;35.10;;;;;;5038095;28;20410;-56
2022/11/03 03:49:31;;;;;;;13.80;12.90;;;12.60;34.70;;;;;;5038873;28;21024;-56
2022/11/03 03:51:57;;;;;;;15.13;14.00;;;12.60;34.50;;;;;;5040528;28;20504;-57
2022/11/03 03:54:22;;;;;;;12.80;12.20;;;12.70;34.60;;;;;;5039913;28;20631;-57
2022/11/03 03:57:01;;;;;;;14.17;13.00;;;12.70;33.90;;;;;;5038900;28;20827;-56
2022/11/03 03:59:27;;;;;;;13.70;12.77;;;12.70;33.90;;;;;;5042277;28;20203;-55
2022/11/03 04:01:52;;;;;;;14.93;13.97;;;12.60;34.30;;;;;;5044912;28;20952;-56
2022/11/03 04:04:18;;;;;;;14.17;13.27;;;12.70;34.10;;;;;;5046016;28;20222;-57
2022/11/03 04:06:44;;;;;;;14.83;13.83;;;12.70;33.90;;;;;;5065196;28;20175;-58
2022/11/03 04:09:09;;;;;;;14.40;13.40;;;12.70;33.90;;;;;;5044279;28;20201;-59
2022/11/03 04:22:32;;;;;;;15.20;14.27;;;12.10;34.50;;;;;;5066460;28;20413;-48
2022/11/03 04:24:59;;;;;;;18.20;16.33;;;11.80;36.20;;;;;;5068221;28;20456;-47
2022/11/03 04:27:33;;;;;;;16.80;15.80;;;11.70;37.10;;;;;;5049858;28;20436;-46
2022/11/03 04:30:19;;;;;;;16.10;15.00;;;11.50;36.80;;;;;;5049592;28;20460;-49
2022/11/03 04:32:47;;;;;;;16.60;15.60;;;11.60;36.90;;;;;;5049316;28;20424;-48
2022/11/03 04:35:20;;;;;;;14.93;13.83;;;11.80;36.40;;;;;;5049591;28;20417;-46
2022/11/03 04:38:00;;;;;;;15.17;14.03;;;11.90;35.70;;;;;;5050264;28;20881;-49
2022/11/03 04:40:27;;;;;;;14.70;13.70;;;12.10;35.30;;;;;;5052485;28;20409;-44
2022/11/03 04:42:53;;;;;;;16.50;15.00;;;12.10;34.70;;;;;;5053388;28;20409;-49
2022/11/03 04:45:21;;;;;;;16.47;15.20;;;12.20;34.70;;;;;;5054611;28;20806;-47
2022/11/03 04:47:47;;;;;;;14.00;13.20;;;12.20;34.60;;;;;;5046192;28;20977;-45
2022/11/03 04:50:19;;;;;;;15.57;14.03;;;12.20;35.10;;;;;;5053311;28;20460;-47
2022/11/03 04:52:46;;;;;;;15.40;14.40;;;12.30;34.90;;;;;;5055999;28;20526;-48
2022/11/03 04:55:19;;;;;;;14.67;13.87;;;12.30;34.60;;;;;;5059596;28;20410;-46
2022/11/03 04:57:44;;;;;;;16.27;15.00;;;12.40;35.10;;;;;;5050023;28;20430;-48
2022/11/03 05:00:17;;;;;;;16.77;15.13;;;12.30;35.10;;;;;;5067925;28;20566;-49
2022/11/03 05:02:45;;;;;;;15.10;13.90;;;12.20;35.30;;;;;;5052183;28;20186;-48
2022/11/03 05:05:21;;;;;;;15.93;14.93;;;12.10;35.30;;;;;;5044192;28;20806;-50
2022/11/03 05:07:50;;;;;;;15.13;14.33;;;12.20;35.30;;;;;;5061107;28;20424;-50
2022/11/03 05:10:18;;;;;;;15.27;14.47;;;12.20;35.20;;;;;;5047205;28;20425;-47
2022/11/03 05:12:45;;;;;;;15.87;14.90;;;12.20;34.90;;;;;;5069635;28;20490;-48
2022/11/03 05:15:29;;;;;;;16.37;15.37;;;12.20;35.00;;;;;;5053803;28;20414;-47
2022/11/03 05:17:56;;;;;;;14.90;14.10;;;12.30;34.80;;;;;;5043582;28;20576;-49
2022/11/03 05:20:35;;;;;;;14.97;14.17;;;12.30;34.70;;;;;;5055192;28;20815;-49
2022/11/03 05:23:02;;;;;;;15.07;14.13;;;12.30;34.60;;;;;;5058139;28;20436;-50
2022/11/03 05:25:41;;;;;;;15.97;14.87;;;12.30;34.90;;;;;;5047659;28;20449;-47
2022/11/03 05:28:40;;;;;;;15.07;14.17;;;12.30;34.70;;;;;;5056008;28;20409;-46
2022/11/03 05:31:31;;;;;;;14.13;13.43;;;12.30;34.50;;;;;;5054587;28;20421;-47
2022/11/03 05:34:05;;;;;;;14.77;13.73;;;12.30;34.40;;;;;;5058344;28;20567;-46
2022/11/03 05:36:32;;;;;;;15.90;14.90;;;12.40;34.80;;;;;;5059108;28;20410;-45
2022/11/03 05:39:11;;;;;;;15.27;14.27;;;12.50;34.50;;;;;;5047571;28;20430;-48
2022/11/03 05:41:37;;;;;;;15.23;14.43;;;12.50;34.30;;;;;;5052391;28;20413;-45
2022/11/03 05:44:24;;;;;;;15.50;14.30;;;12.60;34.00;;;;;;5043398;28;20410;-51
2022/11/03 05:46:49;;;;;;;15.10;14.10;;;12.60;33.80;;;;;;5055178;28;20648;-51
2022/11/03 05:49:15;;;;;;;14.07;13.10;;;12.70;33.90;;;;;;5047175;28;20542;-52
2022/11/03 05:51:44;;;;;;;15.27;14.37;;;12.70;33.90;;;;;;5049377;28;20540;-48
2022/11/03 05:54:23;;;;;;;14.40;13.47;;;12.80;33.90;;;;;;5052633;28;20183;-51
2022/11/03 05:56:49;;;;;;;14.40;13.60;;;12.80;33.30;;;;;;5047995;28;20966;-48
2022/11/03 05:59:22;;;;;;;16.27;14.97;;;12.60;33.80;;;;;;5048500;28;20455;-50
2022/11/03 06:01:48;;;;;;;13.57;12.97;;;12.60;33.80;;;;;;5053678;28;20426;-50
2022/11/03 06:04:31;;;;;;;15.00;14.10;;;12.60;33.70;;;;;;5043979;28;20456;-48
2022/11/03 06:07:25;;;;;;;15.00;13.90;;;12.50;33.70;;;;;;5040737;28;20450;-45
2022/11/03 06:09:54;;;;;;;14.37;13.67;;;12.60;33.80;;;;;;5050490;28;20487;-50
2022/11/03 06:12:21;;;;;;;14.53;13.80;;;12.50;33.70;;;;;;5045400;28;20426;-48
2022/11/03 06:14:47;;;;;;;16.10;15.13;;;12.60;33.80;;;;;;5064013;28;20436;-45
2022/11/03 06:17:25;;;;;;;17.33;15.87;;;12.60;33.80;;;;;;5050381;28;20794;-46
2022/11/03 06:20:00;;;;;;;15.90;14.87;;;12.60;33.80;;;;;;5054770;28;20436;-49
2022/11/03 06:22:34;;;;;;;15.30;14.20;;;12.60;33.60;;;;;;5021624;28;20425;-46
2022/11/03 06:25:30;;;;;;;15.13;14.00;;;12.50;33.70;;;;;;5045116;28;20965;-45
2022/11/03 06:28:00;;;;;;;16.07;14.57;;;12.40;33.60;;;;;;5022576;28;20517;-46
2022/11/03 06:30:29;;;;;;;14.00;13.20;;;12.20;34.60;;;;;;5042917;28;20452;-44
2022/11/03 06:32:59;;;;;;;15.83;14.60;;;12.30;34.80;;;;;;5028781;28;20422;-45
2022/11/03 06:35:25;;;;;;;14.20;13.30;;;12.40;34.30;;;;;;5043217;28;20980;-45
2022/11/03 06:37:51;;;;;;;14.00;13.20;;;12.50;33.80;;;;;;5027208;28;20418;-45
2022/11/03 06:40:16;;;;;;;15.60;14.80;;;12.50;33.70;;;;;;5045543;28;20418;-48
2022/11/03 06:42:42;;;;;;;16.00;14.70;;;12.60;33.80;;;;;;5029028;28;20541;-47
2022/11/03 06:45:19;;;;;;;15.13;14.10;;;12.60;33.70;;;;;;5043270;28;20216;-56
2022/11/03 06:47:45;;;;;;;14.90;14.00;;;12.70;33.30;;;;;;5038434;28;20444;-58
2022/11/03 06:50:37;;;;;;;14.30;13.50;;;12.70;32.80;;;;;;5030022;28;20580;-58
2022/11/03 06:53:03;;;;;;;15.73;14.83;;;12.70;32.50;;;;;;5026496;28;20907;-57
2022/11/03 06:55:31;;;;;;;15.83;14.83;;;12.50;33.70;;;;;;5029625;28;21002;-57
2022/11/03 06:58:13;;;;;;;15.10;14.00;;;12.50;33.70;;;;;;5030047;28;20898;-57
2022/11/03 07:00:41;;;;;;;15.83;14.83;;;12.30;34.10;;;;;;5047830;28;20796;-55
2022/11/03 07:03:07;;;;;;;14.53;13.53;;;12.20;34.50;;;;;;5048203;28;20414;-57
2022/11/03 07:05:33;;;;;;;13.97;13.27;;;12.20;34.50;;;;;;5048474;28;20472;-57
2022/11/03 07:08:02;;;;;;;14.97;14.13;;;12.00;35.40;;;;;;5051602;28;20410;-55
2022/11/03 07:10:30;;;;;;;15.60;14.60;;;12.00;35.70;;;;;;5049834;28;20462;-59
2022/11/03 07:13:00;;;;;;;14.63;13.83;;;12.00;35.80;;;;;;5050845;28;20414;-58
2022/11/03 07:15:31;;;;;;;12.97;12.07;;;11.90;35.80;;;;;;5052145;28;20432;-45
2022/11/03 07:17:57;;;;;;;15.37;14.40;;;11.80;35.80;;;;;;5053049;28;20998;-47
2022/11/03 07:20:23;;;;;;;14.37;13.37;;;11.80;36.40;;;;;;5051657;28;20563;-47
2022/11/03 07:22:51;;;;;;;15.27;14.37;;;11.70;36.10;;;;;;5053258;28;20497;-45
2022/11/03 07:25:21;;;;;;;15.80;14.70;;;11.60;37.10;;;;;;5050317;28;20659;-52
2022/11/03 07:27:50;;;;;;;15.80;15.00;;;11.50;36.80;;;;;;5051486;28;20426;-49
2022/11/03 07:30:34;;;;;;;15.73;14.83;;;11.50;37.30;;;;;;5051902;28;20414;-46
2022/11/03 07:33:09;;;;;;;16.37;15.07;;;11.20;38.30;;;;;;5051570;28;20409;-46
2022/11/03 07:35:44;;;;;;;14.30;13.50;;;11.20;38.50;;;;;;5056194;28;20931;-46
2022/11/03 07:38:14;;;;;;;14.60;13.70;;;11.00;38.90;;;;;;5057414;28;20417;-44
2022/11/03 07:40:41;;;;;;;16.43;15.23;;;10.90;39.40;;;;;;5055012;28;20784;-47
2022/11/03 07:43:27;;;;;;;15.93;14.70;;;11.00;39.50;;;;;;5056578;28;20421;-48
2022/11/03 07:45:55;;;;;;;15.10;14.10;;;11.20;38.90;;;;;;5054437;28;20452;-50
2022/11/03 07:48:23;;;;;;;15.80;14.70;;;11.20;39.20;;;;;;5057409;28;20414;-48
2022/11/03 07:50:52;;;;;;;14.13;13.13;;;11.20;39.40;;;;;;5053287;28;20484;-47
2022/11/03 07:53:49;;;;;;;15.53;14.33;;;11.20;39.50;;;;;;5055788;28;20421;-47
2022/11/03 07:56:21;;;;;;;15.87;14.77;;;11.10;39.40;;;;;;5038756;28;20913;-46
2022/11/03 07:58:53;;;;;;;15.53;14.53;;;11.00;39.50;;;;;;5057321;28;20421;-49
2022/11/03 08:01:26;;;;;;;15.53;14.30;;;10.90;40.20;;;;;;5055853;28;20417;-48
2022/11/03 08:03:55;;;;;;;16.70;15.40;;;10.90;40.70;;;;;;5054718;28;20414;-46
2022/11/03 08:06:21;;;;;;;14.67;13.63;;;11.00;40.10;;;;;;5057189;28;20464;-50
2022/11/03 08:08:47;;;;;;;13.60;12.80;;;11.20;40.60;;;;;;5071621;28;20463;-47
2022/11/03 08:11:12;;;;;;;14.07;13.03;;;11.30;40.00;;;;;;5053328;28;20409;-49
2022/11/03 08:13:38;;;;;;;14.03;13.13;;;11.40;40.10;;;;;;5051598;28;20187;-48
2022/11/03 08:16:04;;;;;;;14.13;13.13;;;11.60;39.50;;;;;;5045938;28;20193;-48
2022/11/03 08:18:29;;;;;;;13.10;12.50;;;11.60;38.60;;;;;;5045521;28;20175;-52
2022/11/03 08:20:55;;;;;;;12.93;12.30;;;11.70;39.20;;;;;;5062208;28;20428;-47
2022/11/03 08:23:21;;;;;;;13.60;12.80;;;11.80;38.50;;;;;;5063146;28;20183;-47
2022/11/03 08:25:46;;;;;;;14.30;13.10;;;11.90;38.30;;;;;;5043693;28;20211;-51
2022/11/03 08:28:12;;;;;;;15.47;14.17;;;11.80;37.10;;;;;;5043043;28;20206;-50
2022/11/03 08:30:38;;;;;;;14.53;13.27;;;11.80;37.80;;;;;;5041920;28;20646;-52
2022/11/03 08:33:03;;;;;;;13.23;12.33;;;11.60;38.00;;;;;;5043333;28;20190;-46
2022/11/03 08:35:29;;;;;;;14.47;13.40;;;11.60;38.80;;;;;;5046785;28;20175;-50
2022/11/03 08:37:54;;;;;;;13.80;13.00;;;11.80;38.10;;;;;;5045300;28;20175;-48
2022/11/03 08:40:20;;;;;;;13.53;12.43;;;11.90;37.60;;;;;;5044323;28;20179;-47
2022/11/03 08:42:46;;;;;;;13.23;12.43;;;12.00;37.40;;;;;;5044212;28;20683;-50
2022/11/03 08:45:12;;;;;;;14.37;13.27;;;12.00;36.50;;;;;;5064070;28;20199;-49
2022/11/03 08:47:38;;;;;;;16.17;14.70;;;12.00;36.60;;;;;;5043388;28;20651;-57
2022/11/03 08:50:04;;;;;;;13.60;12.90;;;12.10;36.70;;;;;;5045612;28;20465;-57
2022/11/03 08:52:30;;;;;;;13.90;12.80;;;12.10;37.00;;;;;;5047668;28;20533;-58
2022/11/03 08:54:55;;;;;;;13.40;12.60;;;12.10;37.00;;;;;;5046302;28;20423;-59
2022/11/03 08:57:21;;;;;;;13.87;12.87;;;12.10;36.70;;;;;;5046611;28;20211;-59
2022/11/03 08:59:47;;;;;;;12.33;11.67;;;12.30;36.60;;;;;;5047245;28;20187;-56
2022/11/03 09:02:13;;;;;;;12.70;11.97;;;12.40;36.20;;;;;;5047768;28;20895;-58
2022/11/03 09:04:39;;;;;;;13.37;12.67;;;12.50;35.50;;;;;;5047726;28;20475;-58
2022/11/03 09:07:04;;;;;;;13.13;12.17;;;12.50;35.70;;;;;;5049797;28;20180;-58
2022/11/03 09:09:30;;;;;;;12.73;11.97;;;12.50;35.20;;;;;;5048411;28;20186;-57
2022/11/03 09:11:56;;;;;;;12.30;11.60;;;12.60;35.10;;;;;;5048438;28;20179;-58
2022/11/03 09:14:21;;;;;;;13.50;12.70;;;12.50;35.50;;;;;;5051045;28;20283;-58
2022/11/03 09:16:47;;;;;;;12.63;11.93;;;12.50;35.70;;;;;;5049871;28;20183;-59
2022/11/03 09:19:12;;;;;;;11.80;11.00;;;12.40;35.70;;;;;;5052254;28;20179;-58
2022/11/03 09:21:38;;;;;;;11.90;11.17;;;12.40;36.10;;;;;;5052053;28;20211;-58
2022/11/03 09:24:04;;;;;;;13.67;12.87;;;12.30;35.70;;;;;;5051097;28;20191;-58
2022/11/03 09:26:29;;;;;;;13.60;12.70;;;12.40;36.10;;;;;;5052209;28;20562;-58
2022/11/03 09:28:55;;;;;;;12.33;11.63;;;12.40;35.90;;;;;;5052672;28;20410;-60
2022/11/03 09:31:22;;;;;;;11.63;10.80;;;12.40;35.90;;;;;;5053390;28;20183;-57
2022/11/03 09:33:47;;;;;;;11.27;10.57;;;12.50;35.40;;;;;;5051495;28;20726;-59
2022/11/03 09:36:13;;;;;;;12.03;11.33;;;12.50;35.20;;;;;;5039138;28;20445;-58
2022/11/03 09:38:39;;;;;;;13.00;12.00;;;12.60;35.40;;;;;;5033533;28;20183;-59
2022/11/03 09:41:05;;;;;;;10.97;10.57;;;12.70;35.20;;;;;;5042381;28;20184;-58
2022/11/03 09:43:31;;;;;;;12.47;11.57;;;12.70;35.20;;;;;;5061865;28;20187;-49
2022/11/03 09:45:58;;;;;;;11.33;10.67;;;12.70;35.20;;;;;;5051977;28;20465;-48
2022/11/03 09:48:24;;;;;;;12.27;11.57;;;12.70;35.50;;;;;;5053866;28;20429;-58
2022/11/03 09:50:52;;;;;;;11.30;10.50;;;12.70;35.30;;;;;;5053102;28;20441;-58
2022/11/03 09:53:18;;;;;;;11.73;10.93;;;12.80;35.40;;;;;;5051998;28;20471;-58
2022/11/03 09:55:44;;;;;;;12.07;11.27;;;12.80;35.50;;;;;;5054014;28;20414;-57
2022/11/03 09:58:13;;;;;;;12.20;11.57;;;12.80;35.60;;;;;;5052414;28;20913;-58
2022/11/03 10:00:39;;;;;;;12.70;11.67;;;12.80;35.40;;;;;;5053583;28;20546;-58
2022/11/03 10:03:05;;;;;;;12.00;11.20;;;12.90;35.40;;;;;;5051522;28;20422;-58
2022/11/03 10:05:31;;;;;;;10.60;10.10;;;12.90;35.30;;;;;;5049084;28;20287;-58
2022/11/03 10:08:06;;;;;;;11.37;10.57;;;12.90;35.40;;;;;;5047403;28;20780;-59
2022/11/03 10:10:34;;;;;;;11.67;10.97;;;12.90;35.50;;;;;;5032309;28;20175;-59
2022/11/03 10:13:00;;;;;;;11.80;11.20;;;12.90;35.20;;;;;;5032584;28;20407;-59
2022/11/03 10:15:26;;;;;;;11.90;11.20;;;12.90;35.60;;;;;;5033350;28;20753;-58
2022/11/03 10:17:53;;;;;;;10.70;10.20;;;13.00;35.70;;;;;;5034568;28;20418;-58
2022/11/03 10:20:21;;;;;;;11.40;10.60;;;13.00;35.50;;;;;;5034160;28;20513;-58
2022/11/03 10:22:51;;;;;;;12.67;11.63;;;13.00;35.70;;;;;;5033146;28;20449;-58
2022/11/03 10:25:36;;;;;;;11.83;11.03;;;13.10;35.60;;;;;;5033873;28;20466;-58
2022/11/03 10:28:17;;;;;;;12.47;11.77;;;13.10;35.80;;;;;;5034688;28;20429;-59
2022/11/03 10:30:57;;;;;;;11.33;10.50;;;13.10;35.80;;;;;;5032749;28;20501;-58
2022/11/03 10:33:31;;;;;;;11.27;10.67;;;13.20;35.60;;;;;;5031310;28;20503;-60
2022/11/03 10:35:58;;;;;;;11.50;10.90;;;13.30;35.50;;;;;;5033862;28;20484;-57
2022/11/03 10:38:29;;;;;;;12.47;11.70;;;13.30;35.40;;;;;;5032911;28;20885;-59
2022/11/03 10:41:16;;;;;;;12.03;11.33;;;13.40;35.10;;;;;;5031472;28;20517;-58
2022/11/03 10:43:44;;;;;;;13.07;12.03;;;13.40;34.50;;;;;;5033140;28;20828;-58
2022/11/03 10:46:19;;;;;;;11.43;10.80;;;13.30;35.00;;;;;;5032274;28;20541;-57
2022/11/03 10:49:00;;;;;;;12.57;11.57;;;13.40;34.90;;;;;;5032789;28;21454;-58
2022/11/03 10:51:25;;;;;;;11.73;11.03;;;13.30;34.40;;;;;;5031252;28;20414;-59
2022/11/03 10:53:51;;;;;;;10.63;10.13;;;13.20;34.30;;;;;;5033454;28;20472;-59
2022/11/03 10:56:17;;;;;;;11.67;10.77;;;13.20;34.70;;;;;;5031948;28;20596;-59
2022/11/03 10:58:42;;;;;;;11.53;10.93;;;13.30;34.40;;;;;;5032571;28;20202;-59
2022/11/03 11:01:10;;;;;;;11.43;10.87;;;13.30;34.40;;;;;;5030943;28;20207;-59
2022/11/03 11:03:41;;;;;;;12.60;11.67;;;13.20;34.30;;;;;;5031409;28;20191;-59
2022/11/03 11:06:20;;;;;;;11.53;10.83;;;13.20;34.30;;;;;;5031276;28;20549;-57
2022/11/03 11:08:47;;;;;;;12.50;11.47;;;13.30;34.40;;;;;;5030502;28;20417;-59
2022/11/03 11:11:17;;;;;;;10.90;10.20;;;13.30;34.40;;;;;;5030220;28;20414;-58
2022/11/03 11:13:43;;;;;;;12.80;12.20;;;13.40;34.50;;;;;;5032088;28;20553;-58
2022/11/03 11:16:48;;;;;;;12.37;11.37;;;13.40;35.20;;;;;;5029204;28;20414;-58
2022/11/03 11:19:13;;;;;;;12.90;12.23;;;13.50;34.60;;;;;;5030460;28;20410;-58
2022/11/03 11:21:39;;;;;;;12.40;11.77;;;13.60;34.60;;;;;;5030515;28;20433;-59
2022/11/03 11:24:09;;;;;;;12.17;11.47;;;13.60;34.60;;;;;;5032255;28;20266;-58
2022/11/03 11:26:36;;;;;;;13.20;12.60;;;13.60;34.60;;;;;;5031001;28;20472;-58
2022/11/03 11:29:07;;;;;;;12.53;11.93;;;13.60;34.70;;;;;;5031423;28;20415;-58
2022/11/03 11:31:37;;;;;;;13.90;12.90;;;13.70;34.60;;;;;;5031296;28;20472;-58
2022/11/03 11:34:09;;;;;;;13.80;12.57;;;13.80;34.30;;;;;;5031367;28;20425;-59
2022/11/03 11:36:40;;;;;;;12.10;11.50;;;13.80;34.00;;;;;;5032192;28;20430;-58
2022/11/03 11:39:21;;;;;;;12.97;12.17;;;13.90;34.30;;;;;;5032492;28;20421;-58
2022/11/03 11:42:06;;;;;;;13.13;12.33;;;13.90;33.40;;;;;;5031526;28;20827;-58
2022/11/03 11:44:53;;;;;;;14.13;13.30;;;14.00;32.90;;;;;;5033239;28;20591;-58
2022/11/03 11:47:32;;;;;;;13.97;13.07;;;14.00;32.80;;;;;;5032288;28;20425;-57
2022/11/03 11:50:10;;;;;;;12.67;12.17;;;14.10;32.40;;;;;;5030825;28;20430;-59
2022/11/03 11:52:58;;;;;;;12.03;11.27;;;14.20;32.40;;;;;;5031625;28;20822;-59
2022/11/03 11:55:23;;;;;;;12.87;12.03;;;14.30;32.30;;;;;;5032687;28;20414;-58
2022/11/03 11:57:49;;;;;;;11.90;11.20;;;14.30;32.00;;;;;;5032307;28;20931;-58
2022/11/03 12:00:21;;;;;;;11.30;10.50;;;14.30;32.80;;;;;;5032865;28;20187;-59
2022/11/03 12:02:47;;;;;;;10.97;10.47;;;14.30;32.40;;;;;;5032729;28;20418;-58
2022/11/03 12:05:33;;;;;;;11.80;11.10;;;14.30;32.50;;;;;;5031920;28;20462;-57
2022/11/03 12:07:59;;;;;;;12.00;11.23;;;14.20;32.60;;;;;;5032603;28;20418;-57
2022/11/03 12:10:31;;;;;;;11.43;10.73;;;14.20;32.60;;;;;;5031309;28;20423;-59
2022/11/03 12:12:58;;;;;;;11.43;10.83;;;14.30;32.50;;;;;;5033521;28;20425;-59
2022/11/03 12:15:47;;;;;;;10.80;10.30;;;14.30;32.40;;;;;;5051333;28;20475;-59
2022/11/03 12:18:31;;;;;;;11.13;10.33;;;14.40;31.70;;;;;;5032289;28;20502;-59
2022/11/03 12:20:57;;;;;;;11.60;10.73;;;14.50;31.40;;;;;;5034533;28;20750;-59
2022/11/03 12:23:38;;;;;;;10.03;9.53;;;14.40;31.30;;;;;;5036866;28;20816;-58
2022/11/03 12:26:04;;;;;;;11.03;10.43;;;14.50;30.90;;;;;;5036834;28;20464;-58
2022/11/03 12:28:39;;;;;;;10.53;10.13;;;14.60;30.80;;;;;;5036015;28;20410;-57
2022/11/03 12:31:04;;;;;;;11.80;11.20;;;14.60;30.50;;;;;;5035458;28;20540;-58
2022/11/03 12:33:30;;;;;;;10.43;9.93;;;14.70;30.50;;;;;;5036778;28;20426;-59
2022/11/03 12:35:56;;;;;;;10.40;9.73;;;14.80;30.40;;;;;;5036505;28;20176;-59
2022/11/03 12:38:23;;;;;;;11.07;10.33;;;14.90;30.00;;;;;;5036192;28;20187;-59
2022/11/03 12:40:49;;;;;;;9.90;9.50;;;14.90;30.20;;;;;;5035652;28;20454;-59
2022/11/03 12:43:15;;;;;;;10.40;9.90;;;15.00;30.30;;;;;;5036974;28;20461;-57
2022/11/03 12:45:40;;;;;;;10.30;9.80;;;15.00;30.10;;;;;;5035900;28;20513;-55
2022/11/03 12:48:06;;;;;;;11.10;10.40;;;15.00;30.70;;;;;;5036164;28;20222;-56
2022/11/03 12:50:33;;;;;;;11.30;10.27;;;15.00;30.50;;;;;;5036214;28;20195;-57
2022/11/03 12:52:58;;;;;;;11.40;10.70;;;15.00;30.70;;;;;;5036808;28;20423;-57
2022/11/03 12:55:24;;;;;;;11.70;10.93;;;15.10;30.50;;;;;;5036103;28;20451;-58
2022/11/03 12:57:49;;;;;;;11.57;10.90;;;15.00;30.90;;;;;;5036727;28;20203;-57
2022/11/03 13:00:16;;;;;;;12.40;11.27;;;14.90;31.30;;;;;;5034426;28;20184;-58
2022/11/03 13:02:42;;;;;;;11.50;10.80;;;14.90;31.50;;;;;;5035789;28;20632;-58